sensor_id;sensor_type;location;lat;lon;timestamp;P1;durP1;ratioP1;P2;durP2;ratioP2
36797;SDS011;22748;8.426;99.512;2023-08-12T00:02:05;17.27;;;8.65;;
36797;SDS011;22748;8.426;99.512;2023-08-12T00:04:35;16.30;;;9.18;;
36797;SDS011;22748;8.426;99.512;2023-08-12T00:07:05;25.85;;;10.15;;
36797;SDS011;22748;8.426;99.512;2023-08-12T00:09:42;13.95;;;9.27;;
36797;SDS011;22748;8.426;99.512;2023-08-12T00:12:13;22.48;;;9.98;;
36797;SDS011;22748;8.426;99.512;2023-08-12T00:15:00;19.35;;;10.55;;
36797;SDS011;22748;8.426;99.512;2023-08-12T00:17:31;18.05;;;9.90;;
36797;SDS011;22748;8.426;99.512;2023-08-12T00:20:03;19.00;;;9.85;;
36797;SDS011;22748;8.426;99.512;2023-08-12T00:22:37;16.38;;;8.90;;
36797;SDS011;22748;8.426;99.512;2023-08-12T00:25:09;16.33;;;10.18;;
36797;SDS011;22748;8.426;99.512;2023-08-12T00:27:41;21.55;;;11.15;;
36797;SDS011;22748;8.426;99.512;2023-08-12T00:32:55;16.60;;;11.50;;
36797;SDS011;22748;8.426;99.512;2023-08-12T00:35:32;14.48;;;11.55;;
36797;SDS011;22748;8.426;99.512;2023-08-12T00:38:03;20.35;;;12.05;;
36797;SDS011;22748;8.426;99.512;2023-08-12T00:40:39;25.40;;;12.68;;
36797;SDS011;22748;8.426;99.512;2023-08-12T00:43:17;18.73;;;10.45;;
36797;SDS011;22748;8.426;99.512;2023-08-12T00:45:50;27.55;;;10.55;;
36797;SDS011;22748;8.426;99.512;2023-08-12T00:48:27;15.45;;;10.18;;
36797;SDS011;22748;8.426;99.512;2023-08-12T00:51:00;12.52;;;8.98;;
36797;SDS011;22748;8.426;99.512;2023-08-12T00:53:31;24.17;;;8.02;;
36797;SDS011;22748;8.426;99.512;2023-08-12T00:56:03;12.98;;;7.63;;
36797;SDS011;22748;8.426;99.512;2023-08-12T00:58:34;19.17;;;7.35;;
36797;SDS011;22748;8.426;99.512;2023-08-12T01:01:19;14.32;;;7.68;;
36797;SDS011;22748;8.426;99.512;2023-08-12T01:03:49;11.15;;;6.85;;
36797;SDS011;22748;8.426;99.512;2023-08-12T01:06:21;29.23;;;8.48;;
36797;SDS011;22748;8.426;99.512;2023-08-12T01:08:52;16.92;;;8.18;;
36797;SDS011;22748;8.426;99.512;2023-08-12T01:13:58;11.10;;;7.10;;
36797;SDS011;22748;8.426;99.512;2023-08-12T01:16:37;17.20;;;7.22;;
36797;SDS011;22748;8.426;99.512;2023-08-12T01:19:16;15.55;;;7.07;;
36797;SDS011;22748;8.426;99.512;2023-08-12T01:21:56;13.98;;;6.20;;
36797;SDS011;22748;8.426;99.512;2023-08-12T01:27:16;16.73;;;5.85;;
36797;SDS011;22748;8.426;99.512;2023-08-12T01:29:49;20.42;;;6.72;;
36797;SDS011;22748;8.426;99.512;2023-08-12T01:32:22;17.45;;;7.65;;
36797;SDS011;22748;8.426;99.512;2023-08-12T01:35:01;16.27;;;6.90;;
36797;SDS011;22748;8.426;99.512;2023-08-12T01:37:36;10.75;;;6.13;;
36797;SDS011;22748;8.426;99.512;2023-08-12T01:40:11;8.55;;;5.60;;
36797;SDS011;22748;8.426;99.512;2023-08-12T01:42:42;9.15;;;5.63;;
36797;SDS011;22748;8.426;99.512;2023-08-12T01:45:14;10.70;;;5.85;;
36797;SDS011;22748;8.426;99.512;2023-08-12T01:50:17;11.63;;;5.85;;
36797;SDS011;22748;8.426;99.512;2023-08-12T01:52:48;19.33;;;4.63;;
36797;SDS011;22748;8.426;99.512;2023-08-12T01:55:27;16.92;;;4.70;;
36797;SDS011;22748;8.426;99.512;2023-08-12T01:57:58;19.48;;;5.60;;
36797;SDS011;22748;8.426;99.512;2023-08-12T02:00:29;10.67;;;4.03;;
36797;SDS011;22748;8.426;99.512;2023-08-12T02:05:29;8.90;;;3.47;;
36797;SDS011;22748;8.426;99.512;2023-08-12T02:08:04;5.30;;;3.90;;
36797;SDS011;22748;8.426;99.512;2023-08-12T02:10:37;6.00;;;3.42;;
36797;SDS011;22748;8.426;99.512;2023-08-12T02:13:07;11.23;;;3.65;;
36797;SDS011;22748;8.426;99.512;2023-08-12T02:15:45;10.55;;;3.80;;
36797;SDS011;22748;8.426;99.512;2023-08-12T02:20:47;8.25;;;4.22;;
36797;SDS011;22748;8.426;99.512;2023-08-12T02:23:18;4.80;;;3.22;;
36797;SDS011;22748;8.426;99.512;2023-08-12T02:25:51;7.72;;;4.50;;
36797;SDS011;22748;8.426;99.512;2023-08-12T02:28:23;7.22;;;3.67;;
36797;SDS011;22748;8.426;99.512;2023-08-12T02:33:22;13.90;;;4.25;;
36797;SDS011;22748;8.426;99.512;2023-08-12T02:35:53;14.15;;;4.15;;
36797;SDS011;22748;8.426;99.512;2023-08-12T02:38:25;14.07;;;3.55;;
36797;SDS011;22748;8.426;99.512;2023-08-12T02:41:04;9.05;;;3.17;;
36797;SDS011;22748;8.426;99.512;2023-08-12T02:43:35;15.25;;;3.47;;
36797;SDS011;22748;8.426;99.512;2023-08-12T02:48:36;22.48;;;4.40;;
36797;SDS011;22748;8.426;99.512;2023-08-12T02:51:07;14.57;;;4.05;;
36797;SDS011;22748;8.426;99.512;2023-08-12T02:56:09;8.95;;;3.78;;
36797;SDS011;22748;8.426;99.512;2023-08-12T02:58:39;12.40;;;3.67;;
36797;SDS011;22748;8.426;99.512;2023-08-12T03:01:10;7.57;;;3.55;;
36797;SDS011;22748;8.426;99.512;2023-08-12T03:06:18;11.77;;;4.13;;
36797;SDS011;22748;8.426;99.512;2023-08-12T03:11:21;5.70;;;2.88;;
36797;SDS011;22748;8.426;99.512;2023-08-12T03:13:52;19.17;;;3.95;;
36797;SDS011;22748;8.426;99.512;2023-08-12T03:16:23;10.57;;;3.50;;
36797;SDS011;22748;8.426;99.512;2023-08-12T03:18:54;8.32;;;3.33;;
36797;SDS011;22748;8.426;99.512;2023-08-12T03:23:54;4.57;;;2.60;;
36797;SDS011;22748;8.426;99.512;2023-08-12T03:26:27;6.10;;;3.30;;
36797;SDS011;22748;8.426;99.512;2023-08-12T03:28:57;5.40;;;2.70;;
36797;SDS011;22748;8.426;99.512;2023-08-12T03:31:30;3.08;;;2.28;;
36797;SDS011;22748;8.426;99.512;2023-08-12T03:34:01;5.72;;;2.28;;
36797;SDS011;22748;8.426;99.512;2023-08-12T03:39:02;5.70;;;1.77;;
36797;SDS011;22748;8.426;99.512;2023-08-12T03:41:35;7.30;;;1.80;;
36797;SDS011;22748;8.426;99.512;2023-08-12T03:44:06;11.75;;;2.80;;
36797;SDS011;22748;8.426;99.512;2023-08-12T03:46:50;7.43;;;2.47;;
36797;SDS011;22748;8.426;99.512;2023-08-12T03:49:21;7.05;;;2.53;;
36797;SDS011;22748;8.426;99.512;2023-08-12T03:52:04;5.22;;;2.25;;
36797;SDS011;22748;8.426;99.512;2023-08-12T03:54:40;2.85;;;1.88;;
36797;SDS011;22748;8.426;99.512;2023-08-12T03:57:17;5.80;;;2.20;;
36797;SDS011;22748;8.426;99.512;2023-08-12T03:59:48;10.43;;;3.50;;
36797;SDS011;22748;8.426;99.512;2023-08-12T04:02:18;4.88;;;2.50;;
36797;SDS011;22748;8.426;99.512;2023-08-12T04:04:48;6.05;;;2.25;;
36797;SDS011;22748;8.426;99.512;2023-08-12T04:07:19;3.63;;;2.00;;
36797;SDS011;22748;8.426;99.512;2023-08-12T04:09:50;5.90;;;2.30;;
36797;SDS011;22748;8.426;99.512;2023-08-12T04:12:24;8.50;;;4.07;;
36797;SDS011;22748;8.426;99.512;2023-08-12T04:14:54;7.22;;;4.28;;
36797;SDS011;22748;8.426;99.512;2023-08-12T04:17:24;9.25;;;3.10;;
36797;SDS011;22748;8.426;99.512;2023-08-12T04:19:56;3.28;;;2.00;;
36797;SDS011;22748;8.426;99.512;2023-08-12T04:24:57;4.20;;;2.50;;
36797;SDS011;22748;8.426;99.512;2023-08-12T04:29:59;8.02;;;2.22;;
36797;SDS011;22748;8.426;99.512;2023-08-12T04:32:28;5.80;;;1.90;;
36797;SDS011;22748;8.426;99.512;2023-08-12T04:34:59;4.70;;;1.92;;
36797;SDS011;22748;8.426;99.512;2023-08-12T04:37:30;3.28;;;1.52;;
36797;SDS011;22748;8.426;99.512;2023-08-12T04:40:02;3.03;;;1.65;;
36797;SDS011;22748;8.426;99.512;2023-08-12T04:42:36;3.70;;;1.42;;
36797;SDS011;22748;8.426;99.512;2023-08-12T04:45:07;3.65;;;1.60;;
36797;SDS011;22748;8.426;99.512;2023-08-12T04:47:40;3.45;;;1.50;;
36797;SDS011;22748;8.426;99.512;2023-08-12T04:50:12;8.93;;;1.83;;
36797;SDS011;22748;8.426;99.512;2023-08-12T04:52:55;4.75;;;1.88;;
36797;SDS011;22748;8.426;99.512;2023-08-12T04:55:26;7.25;;;2.20;;
36797;SDS011;22748;8.426;99.512;2023-08-12T04:58:05;8.50;;;3.10;;
36797;SDS011;22748;8.426;99.512;2023-08-12T05:00:35;5.65;;;2.30;;
36797;SDS011;22748;8.426;99.512;2023-08-12T05:03:05;7.78;;;2.10;;
36797;SDS011;22748;8.426;99.512;2023-08-12T05:05:36;4.78;;;1.90;;
36797;SDS011;22748;8.426;99.512;2023-08-12T05:10:36;7.03;;;2.13;;
36797;SDS011;22748;8.426;99.512;2023-08-12T05:15:38;5.95;;;1.60;;
36797;SDS011;22748;8.426;99.512;2023-08-12T05:18:11;3.13;;;1.70;;
36797;SDS011;22748;8.426;99.512;2023-08-12T05:23:11;3.13;;;1.40;;
36797;SDS011;22748;8.426;99.512;2023-08-12T05:25:41;2.40;;;1.30;;
36797;SDS011;22748;8.426;99.512;2023-08-12T05:28:14;2.43;;;1.10;;
36797;SDS011;22748;8.426;99.512;2023-08-12T05:30:46;3.67;;;1.05;;
36797;SDS011;22748;8.426;99.512;2023-08-12T05:33:16;2.60;;;1.10;;
36797;SDS011;22748;8.426;99.512;2023-08-12T05:35:47;2.25;;;0.90;;
36797;SDS011;22748;8.426;99.512;2023-08-12T05:38:18;6.15;;;1.50;;
36797;SDS011;22748;8.426;99.512;2023-08-12T05:40:48;2.45;;;1.58;;
36797;SDS011;22748;8.426;99.512;2023-08-12T05:43:25;7.75;;;2.05;;
36797;SDS011;22748;8.426;99.512;2023-08-12T05:45:55;4.47;;;1.83;;
36797;SDS011;22748;8.426;99.512;2023-08-12T05:48:31;3.92;;;1.90;;
36797;SDS011;22748;8.426;99.512;2023-08-12T05:53:32;5.50;;;2.00;;
36797;SDS011;22748;8.426;99.512;2023-08-12T05:56:04;1.58;;;0.90;;
36797;SDS011;22748;8.426;99.512;2023-08-12T05:58:37;5.90;;;2.00;;
36797;SDS011;22748;8.426;99.512;2023-08-12T06:01:08;4.18;;;1.50;;
36797;SDS011;22748;8.426;99.512;2023-08-12T06:03:38;4.60;;;2.25;;
36797;SDS011;22748;8.426;99.512;2023-08-12T06:06:15;8.48;;;3.50;;
36797;SDS011;22748;8.426;99.512;2023-08-12T06:08:47;8.30;;;3.30;;
36797;SDS011;22748;8.426;99.512;2023-08-12T06:11:18;9.23;;;2.67;;
36797;SDS011;22748;8.426;99.512;2023-08-12T06:13:51;16.55;;;2.90;;
36797;SDS011;22748;8.426;99.512;2023-08-12T06:16:22;4.05;;;2.28;;
36797;SDS011;22748;8.426;99.512;2023-08-12T06:18:54;7.43;;;2.33;;
36797;SDS011;22748;8.426;99.512;2023-08-12T06:21:25;9.32;;;2.70;;
36797;SDS011;22748;8.426;99.512;2023-08-12T06:23:56;5.63;;;2.85;;
36797;SDS011;22748;8.426;99.512;2023-08-12T06:26:26;5.22;;;1.95;;
36797;SDS011;22748;8.426;99.512;2023-08-12T06:29:11;8.45;;;2.03;;
36797;SDS011;22748;8.426;99.512;2023-08-12T06:31:42;7.68;;;2.53;;
36797;SDS011;22748;8.426;99.512;2023-08-12T06:34:15;3.42;;;1.40;;
36797;SDS011;22748;8.426;99.512;2023-08-12T06:36:45;2.83;;;1.40;;
36797;SDS011;22748;8.426;99.512;2023-08-12T06:39:16;5.60;;;2.05;;
36797;SDS011;22748;8.426;99.512;2023-08-12T06:44:30;4.28;;;1.95;;
36797;SDS011;22748;8.426;99.512;2023-08-12T06:47:01;3.38;;;1.40;;
36797;SDS011;22748;8.426;99.512;2023-08-12T06:49:32;3.33;;;1.83;;
36797;SDS011;22748;8.426;99.512;2023-08-12T06:52:02;3.50;;;1.40;;
36797;SDS011;22748;8.426;99.512;2023-08-12T06:54:33;3.60;;;1.50;;
36797;SDS011;22748;8.426;99.512;2023-08-12T06:57:09;4.22;;;1.73;;
36797;SDS011;22748;8.426;99.512;2023-08-12T06:59:46;10.00;;;5.50;;
36797;SDS011;22748;8.426;99.512;2023-08-12T07:02:16;6.28;;;1.90;;
36797;SDS011;22748;8.426;99.512;2023-08-12T07:04:46;6.20;;;2.17;;
36797;SDS011;22748;8.426;99.512;2023-08-12T07:07:17;4.80;;;2.33;;
36797;SDS011;22748;8.426;99.512;2023-08-12T07:09:49;4.10;;;1.42;;
36797;SDS011;22748;8.426;99.512;2023-08-12T07:12:26;6.32;;;1.60;;
36797;SDS011;22748;8.426;99.512;2023-08-12T07:14:58;6.05;;;1.35;;
36797;SDS011;22748;8.426;99.512;2023-08-12T07:17:29;3.85;;;1.15;;
36797;SDS011;22748;8.426;99.512;2023-08-12T07:20:00;3.88;;;1.60;;
36797;SDS011;22748;8.426;99.512;2023-08-12T07:22:31;4.30;;;1.20;;
36797;SDS011;22748;8.426;99.512;2023-08-12T07:25:01;4.38;;;2.65;;
36797;SDS011;22748;8.426;99.512;2023-08-12T07:27:33;5.18;;;1.60;;
36797;SDS011;22748;8.426;99.512;2023-08-12T07:30:05;9.50;;;1.80;;
36797;SDS011;22748;8.426;99.512;2023-08-12T07:32:38;5.03;;;2.20;;
36797;SDS011;22748;8.426;99.512;2023-08-12T07:35:14;3.75;;;1.40;;
36797;SDS011;22748;8.426;99.512;2023-08-12T07:37:44;3.05;;;1.50;;
36797;SDS011;22748;8.426;99.512;2023-08-12T07:40:15;8.63;;;2.10;;
36797;SDS011;22748;8.426;99.512;2023-08-12T07:42:46;4.53;;;2.00;;
36797;SDS011;22748;8.426;99.512;2023-08-12T07:45:19;4.93;;;1.63;;
36797;SDS011;22748;8.426;99.512;2023-08-12T07:47:50;5.13;;;1.80;;
36797;SDS011;22748;8.426;99.512;2023-08-12T07:50:21;6.93;;;3.05;;
36797;SDS011;22748;8.426;99.512;2023-08-12T07:52:58;6.07;;;2.70;;
36797;SDS011;22748;8.426;99.512;2023-08-12T07:55:29;7.40;;;3.28;;
36797;SDS011;22748;8.426;99.512;2023-08-12T07:58:00;4.78;;;2.58;;
36797;SDS011;22748;8.426;99.512;2023-08-12T08:03:21;6.27;;;2.80;;
36797;SDS011;22748;8.426;99.512;2023-08-12T08:05:52;6.47;;;3.20;;
36797;SDS011;22748;8.426;99.512;2023-08-12T08:08:21;11.85;;;7.90;;
36797;SDS011;22748;8.426;99.512;2023-08-12T08:10:53;10.13;;;6.35;;
36797;SDS011;22748;8.426;99.512;2023-08-12T08:13:25;10.30;;;5.00;;
36797;SDS011;22748;8.426;99.512;2023-08-12T08:15:58;7.60;;;3.83;;
36797;SDS011;22748;8.426;99.512;2023-08-12T08:18:29;4.30;;;2.70;;
36797;SDS011;22748;8.426;99.512;2023-08-12T08:23:29;5.47;;;2.33;;
36797;SDS011;22748;8.426;99.512;2023-08-12T08:26:00;2.55;;;1.80;;
36797;SDS011;22748;8.426;99.512;2023-08-12T08:28:30;3.15;;;1.27;;
36797;SDS011;22748;8.426;99.512;2023-08-12T08:33:44;2.22;;;1.00;;
36797;SDS011;22748;8.426;99.512;2023-08-12T08:36:15;2.95;;;0.95;;
36797;SDS011;22748;8.426;99.512;2023-08-12T08:41:21;3.30;;;1.42;;
36797;SDS011;22748;8.426;99.512;2023-08-12T08:54:53;8.88;;;1.10;;
36797;SDS011;22748;8.426;99.512;2023-08-12T08:57:25;5.22;;;1.70;;
36797;SDS011;22748;8.426;99.512;2023-08-12T08:59:56;6.57;;;2.10;;
36797;SDS011;22748;8.426;99.512;2023-08-12T09:02:33;3.53;;;1.50;;
36797;SDS011;22748;8.426;99.512;2023-08-12T09:05:05;4.65;;;1.25;;
36797;SDS011;22748;8.426;99.512;2023-08-12T09:07:36;3.97;;;1.30;;
36797;SDS011;22748;8.426;99.512;2023-08-12T09:10:11;4.20;;;1.40;;
36797;SDS011;22748;8.426;99.512;2023-08-12T09:12:43;7.38;;;1.67;;
36797;SDS011;22748;8.426;99.512;2023-08-12T09:15:15;6.38;;;1.90;;
36797;SDS011;22748;8.426;99.512;2023-08-12T09:17:45;4.88;;;1.58;;
36797;SDS011;22748;8.426;99.512;2023-08-12T09:20:16;5.13;;;2.10;;
36797;SDS011;22748;8.426;99.512;2023-08-12T09:22:47;4.45;;;1.85;;
36797;SDS011;22748;8.426;99.512;2023-08-12T09:25:27;4.18;;;1.30;;
36797;SDS011;22748;8.426;99.512;2023-08-12T09:27:58;3.10;;;1.05;;
36797;SDS011;22748;8.426;99.512;2023-08-12T09:30:33;2.25;;;1.17;;
36797;SDS011;22748;8.426;99.512;2023-08-12T09:33:07;4.32;;;1.10;;
36797;SDS011;22748;8.426;99.512;2023-08-12T09:35:37;3.83;;;1.60;;
36797;SDS011;22748;8.426;99.512;2023-08-12T09:38:11;2.90;;;1.48;;
36797;SDS011;22748;8.426;99.512;2023-08-12T09:40:46;3.33;;;1.30;;
36797;SDS011;22748;8.426;99.512;2023-08-12T09:43:17;2.50;;;1.10;;
36797;SDS011;22748;8.426;99.512;2023-08-12T09:45:47;5.22;;;1.10;;
36797;SDS011;22748;8.426;99.512;2023-08-12T09:48:19;6.28;;;1.83;;
36797;SDS011;22748;8.426;99.512;2023-08-12T09:50:50;4.88;;;1.70;;
36797;SDS011;22748;8.426;99.512;2023-08-12T09:53:22;2.67;;;1.40;;
36797;SDS011;22748;8.426;99.512;2023-08-12T09:55:56;1.77;;;1.40;;
36797;SDS011;22748;8.426;99.512;2023-08-12T09:58:29;6.15;;;1.50;;
36797;SDS011;22748;8.426;99.512;2023-08-12T10:01:02;3.10;;;1.77;;
36797;SDS011;22748;8.426;99.512;2023-08-12T10:03:34;3.33;;;1.15;;
36797;SDS011;22748;8.426;99.512;2023-08-12T10:06:05;1.98;;;1.63;;
36797;SDS011;22748;8.426;99.512;2023-08-12T10:11:08;5.78;;;3.58;;
36797;SDS011;22748;8.426;99.512;2023-08-12T10:13:46;2.95;;;2.13;;
36797;SDS011;22748;8.426;99.512;2023-08-12T10:16:20;6.18;;;1.67;;
36797;SDS011;22748;8.426;99.512;2023-08-12T10:18:52;2.15;;;1.48;;
36797;SDS011;22748;8.426;99.512;2023-08-12T10:21:24;3.20;;;1.65;;
36797;SDS011;22748;8.426;99.512;2023-08-12T10:23:56;3.08;;;1.80;;
36797;SDS011;22748;8.426;99.512;2023-08-12T10:26:28;2.08;;;1.80;;
36797;SDS011;22748;8.426;99.512;2023-08-12T10:28:59;9.13;;;2.63;;
36797;SDS011;22748;8.426;99.512;2023-08-12T10:31:31;12.50;;;7.90;;
36797;SDS011;22748;8.426;99.512;2023-08-12T10:34:02;26.08;;;18.30;;
36797;SDS011;22748;8.426;99.512;2023-08-12T10:36:33;37.67;;;25.67;;
36797;SDS011;22748;8.426;99.512;2023-08-12T10:39:10;60.17;;;37.63;;
36797;SDS011;22748;8.426;99.512;2023-08-12T10:41:52;47.92;;;29.25;;
36797;SDS011;22748;8.426;99.512;2023-08-12T10:44:26;46.00;;;25.17;;
36797;SDS011;22748;8.426;99.512;2023-08-12T10:47:08;41.75;;;26.40;;
36797;SDS011;22748;8.426;99.512;2023-08-12T10:49:39;39.70;;;23.88;;
36797;SDS011;22748;8.426;99.512;2023-08-12T10:55:19;18.73;;;9.23;;
36797;SDS011;22748;8.426;99.512;2023-08-12T10:57:52;10.80;;;6.07;;
36797;SDS011;22748;8.426;99.512;2023-08-12T11:00:24;7.97;;;3.20;;
36797;SDS011;22748;8.426;99.512;2023-08-12T11:02:57;9.55;;;3.42;;
36797;SDS011;22748;8.426;99.512;2023-08-12T11:05:35;7.25;;;3.30;;
36797;SDS011;22748;8.426;99.512;2023-08-12T11:08:07;4.07;;;2.60;;
36797;SDS011;22748;8.426;99.512;2023-08-12T11:10:38;5.82;;;2.58;;
36797;SDS011;22748;8.426;99.512;2023-08-12T11:13:10;3.67;;;1.88;;
36797;SDS011;22748;8.426;99.512;2023-08-12T11:15:43;4.97;;;2.20;;
36797;SDS011;22748;8.426;99.512;2023-08-12T11:18:17;3.47;;;2.10;;
36797;SDS011;22748;8.426;99.512;2023-08-12T11:20:49;2.13;;;1.80;;
36797;SDS011;22748;8.426;99.512;2023-08-12T11:23:18;3.25;;;1.52;;
36797;SDS011;22748;8.426;99.512;2023-08-12T11:25:49;3.67;;;2.20;;
36797;SDS011;22748;8.426;99.512;2023-08-12T11:28:22;3.42;;;1.83;;
36797;SDS011;22748;8.426;99.512;2023-08-12T11:30:56;5.13;;;3.60;;
36797;SDS011;22748;8.426;99.512;2023-08-12T11:33:30;8.48;;;4.68;;
36797;SDS011;22748;8.426;99.512;2023-08-12T11:36:00;5.60;;;3.60;;
36797;SDS011;22748;8.426;99.512;2023-08-12T11:38:32;5.40;;;4.00;;
36797;SDS011;22748;8.426;99.512;2023-08-12T11:41:05;5.30;;;3.15;;
36797;SDS011;22748;8.426;99.512;2023-08-12T11:43:42;4.43;;;2.90;;
36797;SDS011;22748;8.426;99.512;2023-08-12T11:46:15;5.10;;;4.20;;
36797;SDS011;22748;8.426;99.512;2023-08-12T11:48:47;5.43;;;4.20;;
36797;SDS011;22748;8.426;99.512;2023-08-12T11:51:18;5.78;;;4.10;;
36797;SDS011;22748;8.426;99.512;2023-08-12T11:53:48;7.05;;;3.55;;
36797;SDS011;22748;8.426;99.512;2023-08-12T11:56:18;5.00;;;3.10;;
36797;SDS011;22748;8.426;99.512;2023-08-12T11:58:54;3.88;;;2.72;;
36797;SDS011;22748;8.426;99.512;2023-08-12T12:01:24;5.60;;;3.78;;
36797;SDS011;22748;8.426;99.512;2023-08-12T12:03:59;10.57;;;6.13;;
36797;SDS011;22748;8.426;99.512;2023-08-12T12:09:01;15.30;;;6.88;;
36797;SDS011;22748;8.426;99.512;2023-08-12T12:11:36;12.93;;;6.95;;
36797;SDS011;22748;8.426;99.512;2023-08-12T12:14:08;7.72;;;6.85;;
36797;SDS011;22748;8.426;99.512;2023-08-12T12:16:41;9.52;;;7.78;;
36797;SDS011;22748;8.426;99.512;2023-08-12T12:19:15;9.88;;;7.05;;
36797;SDS011;22748;8.426;99.512;2023-08-12T12:21:47;12.32;;;9.52;;
36797;SDS011;22748;8.426;99.512;2023-08-12T12:24:20;16.90;;;9.25;;
36797;SDS011;22748;8.426;99.512;2023-08-12T12:26:50;16.80;;;10.48;;
36797;SDS011;22748;8.426;99.512;2023-08-12T12:29:25;19.60;;;10.07;;
36797;SDS011;22748;8.426;99.512;2023-08-12T12:31:56;16.75;;;9.30;;
36797;SDS011;22748;8.426;99.512;2023-08-12T12:34:28;14.00;;;8.75;;
36797;SDS011;22748;8.426;99.512;2023-08-12T12:36:59;12.23;;;7.72;;
36797;SDS011;22748;8.426;99.512;2023-08-12T12:39:30;13.45;;;8.10;;
36797;SDS011;22748;8.426;99.512;2023-08-12T12:42:01;15.55;;;8.48;;
36797;SDS011;22748;8.426;99.512;2023-08-12T12:44:34;20.27;;;12.32;;
36797;SDS011;22748;8.426;99.512;2023-08-12T12:47:05;20.67;;;14.02;;
36797;SDS011;22748;8.426;99.512;2023-08-12T12:49:38;18.42;;;13.60;;
36797;SDS011;22748;8.426;99.512;2023-08-12T12:52:10;20.00;;;13.70;;
36797;SDS011;22748;8.426;99.512;2023-08-12T12:54:41;20.98;;;14.00;;
36797;SDS011;22748;8.426;99.512;2023-08-12T12:57:13;24.85;;;18.05;;
36797;SDS011;22748;8.426;99.512;2023-08-12T12:59:46;22.30;;;14.35;;
36797;SDS011;22748;8.426;99.512;2023-08-12T13:02:17;18.77;;;13.25;;
36797;SDS011;22748;8.426;99.512;2023-08-12T13:04:48;20.83;;;14.85;;
36797;SDS011;22748;8.426;99.512;2023-08-12T13:07:18;22.35;;;14.50;;
36797;SDS011;22748;8.426;99.512;2023-08-12T13:09:50;19.63;;;15.03;;
36797;SDS011;22748;8.426;99.512;2023-08-12T13:12:20;22.52;;;15.45;;
36797;SDS011;22748;8.426;99.512;2023-08-12T13:14:53;19.25;;;13.23;;
36797;SDS011;22748;8.426;99.512;2023-08-12T13:17:24;16.88;;;14.23;;
36797;SDS011;22748;8.426;99.512;2023-08-12T13:19:55;19.67;;;12.20;;
36797;SDS011;22748;8.426;99.512;2023-08-12T13:22:26;14.13;;;10.77;;
36797;SDS011;22748;8.426;99.512;2023-08-12T13:24:57;13.95;;;10.98;;
36797;SDS011;22748;8.426;99.512;2023-08-12T13:27:29;13.88;;;10.73;;
36797;SDS011;22748;8.426;99.512;2023-08-12T13:30:02;14.35;;;9.27;;
36797;SDS011;22748;8.426;99.512;2023-08-12T13:32:33;16.55;;;9.68;;
36797;SDS011;22748;8.426;99.512;2023-08-12T13:35:05;13.90;;;9.45;;
36797;SDS011;22748;8.426;99.512;2023-08-12T13:37:35;11.68;;;9.85;;
36797;SDS011;22748;8.426;99.512;2023-08-12T13:40:06;16.23;;;9.82;;
36797;SDS011;22748;8.426;99.512;2023-08-12T13:42:38;11.18;;;9.10;;
36797;SDS011;22748;8.426;99.512;2023-08-12T13:45:14;13.50;;;9.93;;
36797;SDS011;22748;8.426;99.512;2023-08-12T13:48:00;18.95;;;10.82;;
36797;SDS011;22748;8.426;99.512;2023-08-12T13:50:32;22.20;;;11.40;;
36797;SDS011;22748;8.426;99.512;2023-08-12T13:53:05;15.48;;;10.98;;
36797;SDS011;22748;8.426;99.512;2023-08-12T13:55:36;18.10;;;12.02;;
36797;SDS011;22748;8.426;99.512;2023-08-12T13:58:07;16.55;;;10.75;;
36797;SDS011;22748;8.426;99.512;2023-08-12T14:03:12;26.20;;;20.23;;
36797;SDS011;22748;8.426;99.512;2023-08-12T14:05:44;23.15;;;18.52;;
36797;SDS011;22748;8.426;99.512;2023-08-12T14:08:22;22.05;;;15.95;;
36797;SDS011;22748;8.426;99.512;2023-08-12T14:10:56;19.13;;;14.55;;
36797;SDS011;22748;8.426;99.512;2023-08-12T14:13:32;17.70;;;12.63;;
36797;SDS011;22748;8.426;99.512;2023-08-12T14:16:05;17.17;;;12.60;;
36797;SDS011;22748;8.426;99.512;2023-08-12T14:18:38;17.65;;;11.98;;
36797;SDS011;22748;8.426;99.512;2023-08-12T14:21:08;14.98;;;11.32;;
36797;SDS011;22748;8.426;99.512;2023-08-12T14:23:39;16.83;;;10.50;;
36797;SDS011;22748;8.426;99.512;2023-08-12T14:28:52;17.77;;;12.73;;
36797;SDS011;22748;8.426;99.512;2023-08-12T14:31:25;19.98;;;12.57;;
36797;SDS011;22748;8.426;99.512;2023-08-12T14:33:56;18.40;;;11.38;;
36797;SDS011;22748;8.426;99.512;2023-08-12T14:38:58;15.70;;;10.80;;
36797;SDS011;22748;8.426;99.512;2023-08-12T14:41:35;16.52;;;9.10;;
36797;SDS011;22748;8.426;99.512;2023-08-12T14:44:06;8.80;;;7.90;;
36797;SDS011;22748;8.426;99.512;2023-08-12T14:46:51;9.95;;;7.57;;
36797;SDS011;22748;8.426;99.512;2023-08-12T14:49:23;10.98;;;7.18;;
36797;SDS011;22748;8.426;99.512;2023-08-12T14:51:54;11.85;;;7.78;;
36797;SDS011;22748;8.426;99.512;2023-08-12T14:54:25;10.98;;;8.15;;
36797;SDS011;22748;8.426;99.512;2023-08-12T14:57:01;11.13;;;7.47;;
36797;SDS011;22748;8.426;99.512;2023-08-12T14:59:40;11.55;;;7.95;;
36797;SDS011;22748;8.426;99.512;2023-08-12T15:05:10;10.63;;;7.78;;
36797;SDS011;22748;8.426;99.512;2023-08-12T15:07:40;12.80;;;8.27;;
36797;SDS011;22748;8.426;99.512;2023-08-12T15:10:12;12.02;;;8.60;;
36797;SDS011;22748;8.426;99.512;2023-08-12T15:12:42;13.05;;;8.80;;
36797;SDS011;22748;8.426;99.512;2023-08-12T15:15:13;10.68;;;8.70;;
36797;SDS011;22748;8.426;99.512;2023-08-12T15:17:59;14.02;;;8.98;;
36797;SDS011;22748;8.426;99.512;2023-08-12T15:20:30;15.85;;;9.90;;
36797;SDS011;22748;8.426;99.512;2023-08-12T15:25:31;13.82;;;10.02;;
36797;SDS011;22748;8.426;99.512;2023-08-12T15:30:33;12.57;;;10.18;;
36797;SDS011;22748;8.426;99.512;2023-08-12T15:33:25;16.92;;;10.55;;
36797;SDS011;22748;8.426;99.512;2023-08-12T15:35:55;14.13;;;10.50;;
36797;SDS011;22748;8.426;99.512;2023-08-12T15:38:26;15.67;;;10.77;;
36797;SDS011;22748;8.426;99.512;2023-08-12T15:43:26;19.60;;;12.80;;
36797;SDS011;22748;8.426;99.512;2023-08-12T15:45:59;18.95;;;14.23;;
36797;SDS011;22748;8.426;99.512;2023-08-12T15:48:32;18.83;;;14.07;;
36797;SDS011;22748;8.426;99.512;2023-08-12T15:51:03;19.13;;;13.80;;
36797;SDS011;22748;8.426;99.512;2023-08-12T15:56:04;19.00;;;13.23;;
36797;SDS011;22748;8.426;99.512;2023-08-12T15:58:35;18.02;;;12.52;;
36797;SDS011;22748;8.426;99.512;2023-08-12T16:01:06;19.42;;;12.18;;
36797;SDS011;22748;8.426;99.512;2023-08-12T16:03:49;13.50;;;11.30;;
36797;SDS011;22748;8.426;99.512;2023-08-12T16:06:21;14.15;;;11.02;;
36797;SDS011;22748;8.426;99.512;2023-08-12T16:11:22;15.27;;;10.35;;
36797;SDS011;22748;8.426;99.512;2023-08-12T16:13:52;11.65;;;9.50;;
36797;SDS011;22748;8.426;99.512;2023-08-12T16:16:23;13.35;;;10.23;;
36797;SDS011;22748;8.426;99.512;2023-08-12T16:19:01;13.07;;;9.35;;
36797;SDS011;22748;8.426;99.512;2023-08-12T16:21:35;19.83;;;10.23;;
36797;SDS011;22748;8.426;99.512;2023-08-12T16:24:07;17.67;;;10.23;;
36797;SDS011;22748;8.426;99.512;2023-08-12T16:26:39;12.80;;;9.50;;
36797;SDS011;22748;8.426;99.512;2023-08-12T16:29:09;13.65;;;9.55;;
36797;SDS011;22748;8.426;99.512;2023-08-12T16:31:46;14.77;;;10.25;;
36797;SDS011;22748;8.426;99.512;2023-08-12T16:34:18;13.95;;;9.48;;
36797;SDS011;22748;8.426;99.512;2023-08-12T16:36:48;15.70;;;8.80;;
36797;SDS011;22748;8.426;99.512;2023-08-12T16:39:19;12.53;;;8.90;;
36797;SDS011;22748;8.426;99.512;2023-08-12T16:44:22;10.05;;;7.97;;
36797;SDS011;22748;8.426;99.512;2023-08-12T16:46:53;10.98;;;7.85;;
36797;SDS011;22748;8.426;99.512;2023-08-12T16:49:38;12.60;;;8.27;;
36797;SDS011;22748;8.426;99.512;2023-08-12T16:52:15;11.87;;;8.77;;
36797;SDS011;22748;8.426;99.512;2023-08-12T16:54:46;9.52;;;7.85;;
36797;SDS011;22748;8.426;99.512;2023-08-12T16:57:17;10.32;;;8.45;;